Time;durP1;ratioP1;P1;durP2;ratioP2;P2;SDS_P1;SDS_P2;PMS_P1;PMS_P2;Temp;Humidity;BMP_temperature;BMP_pressure;BME280_temperature;BME280_humidity;BME280_pressure;Samples;Min_cycle;Max_cycle;Signal;HPM_P1;HPM_P2
2023/04/08 00:01:01;;;;;;;11.05;6.55;;;6.40;99.90;;;;;;6334788;22;20087;-79
2023/04/08 00:03:27;;;;;;;8.40;5.63;;;6.50;99.90;;;;;;6364024;22;20030;-79
2023/04/08 00:05:53;;;;;;;9.48;6.15;;;6.40;99.90;;;;;;6335720;22;20022;-79
2023/04/08 00:08:19;;;;;;;11.63;6.18;;;6.40;99.90;;;;;;6364217;22;20746;-79
2023/04/08 00:10:45;;;;;;;9.02;6.40;;;6.40;99.90;;;;;;6335369;22;20018;-79
2023/04/08 00:13:11;;;;;;;13.45;6.55;;;6.30;99.90;;;;;;6364070;22;20018;-79
2023/04/08 00:15:36;;;;;;;9.80;6.63;;;6.30;99.90;;;;;;6364320;22;20615;-79
2023/04/08 00:18:02;;;;;;;9.82;6.47;;;6.30;99.90;;;;;;6363281;22;20026;-79
2023/04/08 00:20:28;;;;;;;10.32;6.00;;;6.30;99.90;;;;;;6364126;22;20016;-80
2023/04/08 00:22:53;;;;;;;9.25;5.95;;;6.20;99.90;;;;;;6336595;22;20022;-79
2023/04/08 00:25:19;;;;;;;11.90;6.55;;;6.10;99.90;;;;;;6363325;22;20103;-80
2023/04/08 00:27:45;;;;;;;11.02;6.63;;;6.10;99.90;;;;;;6363222;22;20063;-79
2023/04/08 00:30:11;;;;;;;9.55;6.93;;;6.00;99.90;;;;;;6335322;22;20061;-79
2023/04/08 00:32:36;;;;;;;11.40;6.00;;;6.10;99.90;;;;;;6362688;22;20042;-78
2023/04/08 00:35:03;;;;;;;7.00;5.50;;;6.00;99.90;;;;;;6363590;22;20026;-77
2023/04/08 00:37:30;;;;;;;9.57;7.05;;;6.00;99.90;;;;;;6363329;22;20059;-78
2023/04/08 00:39:56;;;;;;;11.02;6.55;;;5.90;99.90;;;;;;6363006;22;20017;-79
2023/04/08 00:42:21;;;;;;;8.32;6.45;;;5.90;99.90;;;;;;6335204;22;20417;-79
2023/04/08 00:44:47;;;;;;;9.88;6.32;;;5.90;99.90;;;;;;6365795;22;20018;-79
2023/04/08 00:47:13;;;;;;;10.32;6.50;;;5.90;99.90;;;;;;6366891;22;20082;-79
2023/04/08 00:49:39;;;;;;;9.18;6.00;;;5.80;99.90;;;;;;6367856;22;20033;-78
2023/04/08 00:52:05;;;;;;;10.45;6.20;;;5.60;99.90;;;;;;6366978;22;20090;-79
2023/04/08 00:54:30;;;;;;;11.20;7.25;;;5.70;99.90;;;;;;6366458;22;20322;-79
2023/04/08 00:57:00;;;;;;;7.65;6.35;;;5.60;99.90;;;;;;6312316;22;20481;-79
2023/04/08 00:59:27;;;;;;;9.82;6.50;;;5.60;99.90;;;;;;6338414;22;20022;-79
2023/04/08 01:02:16;;;;;;;12.60;5.97;;;5.60;99.90;;;;;;6338324;22;20040;-79
2023/04/08 01:05:05;;;;;;;7.60;6.07;;;5.60;99.90;;;;;;6366433;22;20015;-79
2023/04/08 01:07:43;;;;;;;9.07;6.38;;;5.60;99.90;;;;;;6367047;22;20079;-78
2023/04/08 01:10:20;;;;;;;9.90;6.75;;;5.50;99.90;;;;;;6337980;22;20042;-78
2023/04/08 01:12:55;;;;;;;9.85;6.95;;;5.50;99.90;;;;;;6338488;22;20542;-78
2023/04/08 01:15:23;;;;;;;9.60;6.28;;;5.50;99.90;;;;;;6338584;22;20132;-77
2023/04/08 01:17:52;;;;;;;10.13;6.90;;;5.50;99.90;;;;;;6337976;22;20405;-78
2023/04/08 01:20:18;;;;;;;8.90;6.65;;;5.50;99.90;;;;;;6366653;22;20022;-77
2023/04/08 01:22:53;;;;;;;12.77;7.13;;;5.40;99.90;;;;;;6312513;22;20129;-79
2023/04/08 01:25:31;;;;;;;11.82;6.93;;;5.40;99.90;;;;;;6366205;22;20018;-79
2023/04/08 01:27:59;;;;;;;10.57;6.80;;;5.40;99.90;;;;;;6312227;22;20022;-79
2023/04/08 01:30:26;;;;;;;9.82;7.22;;;5.40;99.90;;;;;;6337933;22;20014;-78
2023/04/08 01:32:56;;;;;;;12.07;7.97;;;5.40;99.90;;;;;;6365893;22;20018;-78
2023/04/08 01:35:23;;;;;;;10.20;6.88;;;5.40;99.90;;;;;;6366373;22;20021;-78
2023/04/08 01:37:50;;;;;;;11.02;7.93;;;5.30;99.90;;;;;;6365891;22;20018;-79
2023/04/08 01:40:18;;;;;;;11.10;7.30;;;5.40;99.90;;;;;;6365847;22;20421;-78
2023/04/08 01:42:46;;;;;;;11.90;7.70;;;5.40;99.90;;;;;;6365535;22;20503;-78
2023/04/08 01:45:13;;;;;;;11.85;7.20;;;5.30;99.90;;;;;;6338148;22;20022;-78
2023/04/08 01:47:39;;;;;;;10.95;7.38;;;5.30;99.90;;;;;;6366642;22;20089;-78
2023/04/08 01:50:07;;;;;;;13.10;8.15;;;5.30;99.90;;;;;;6366215;22;20021;-79
2023/04/08 01:52:36;;;;;;;14.77;7.70;;;5.20;99.90;;;;;;6337774;22;20353;-79
2023/04/08 01:55:03;;;;;;;12.07;7.68;;;5.30;99.90;;;;;;6365643;22;20558;-78
2023/04/08 01:57:34;;;;;;;13.50;8.07;;;5.20;99.90;;;;;;6336297;22;20022;-79
2023/04/08 02:00:04;;;;;;;14.20;8.07;;;5.10;99.90;;;;;;6335850;22;20046;-79
2023/04/08 02:02:31;;;;;;;13.38;8.75;;;5.00;99.90;;;;;;6365376;22;20065;-79
2023/04/08 02:04:57;;;;;;;12.65;8.35;;;5.10;99.90;;;;;;6336621;22;20022;-79
2023/04/08 02:07:23;;;;;;;15.63;8.48;;;5.10;99.90;;;;;;6365572;22;20672;-79
2023/04/08 02:09:49;;;;;;;13.27;9.15;;;5.10;99.90;;;;;;6365226;22;20086;-79
2023/04/08 02:12:16;;;;;;;14.25;9.63;;;4.90;99.90;;;;;;6336920;22;20025;-79
2023/04/08 02:14:42;;;;;;;14.80;8.50;;;4.90;99.90;;;;;;6365088;22;20717;-79
2023/04/08 02:17:15;;;;;;;15.65;8.68;;;5.10;99.90;;;;;;6336518;22;20063;-79
2023/04/08 02:19:51;;;;;;;14.43;8.43;;;5.00;99.90;;;;;;6364951;22;20038;-79
2023/04/08 02:22:28;;;;;;;14.30;8.30;;;5.00;99.90;;;;;;6364388;22;20056;-79
2023/04/08 02:24:55;;;;;;;15.95;8.90;;;4.90;99.90;;;;;;6364508;22;20015;-78
2023/04/08 02:27:23;;;;;;;14.02;9.18;;;4.90;99.90;;;;;;6336256;22;20431;-78
2023/04/08 02:29:51;;;;;;;12.57;9.60;;;4.90;99.90;;;;;;6364633;22;20026;-79
2023/04/08 02:32:18;;;;;;;19.10;10.07;;;4.90;99.90;;;;;;6364898;22;20018;-80
2023/04/08 02:34:44;;;;;;;13.88;8.90;;;4.80;99.90;;;;;;6364497;22;20562;-77
2023/04/08 02:37:10;;;;;;;15.75;8.88;;;4.70;99.90;;;;;;6336377;22;20294;-79
2023/04/08 02:39:36;;;;;;;17.40;9.27;;;4.80;99.90;;;;;;6336325;22;20018;-78
2023/04/08 02:42:04;;;;;;;19.08;10.10;;;4.70;99.90;;;;;;6364862;22;20022;-80
2023/04/08 02:44:30;;;;;;;13.55;9.20;;;4.70;99.90;;;;;;6364462;22;20042;-80
2023/04/08 02:46:55;;;;;;;18.52;9.23;;;4.70;99.90;;;;;;6365120;22;20022;-80
2023/04/08 02:49:21;;;;;;;14.50;9.80;;;4.80;99.90;;;;;;6364895;22;20025;-79
2023/04/08 02:51:47;;;;;;;17.63;9.85;;;4.60;99.90;;;;;;6364624;22;20014;-80
2023/04/08 02:54:12;;;;;;;15.00;9.57;;;4.60;99.90;;;;;;6336298;22;20719;-80
2023/04/08 02:56:38;;;;;;;15.23;9.73;;;4.60;99.90;;;;;;6336086;22;20045;-79
2023/04/08 02:59:04;;;;;;;17.08;9.27;;;4.60;99.90;;;;;;6335832;22;20038;-80
2023/04/08 03:01:30;;;;;;;19.23;10.70;;;4.60;99.90;;;;;;6364988;22;20041;-78
2023/04/08 03:03:55;;;;;;;18.02;10.57;;;4.60;99.90;;;;;;6364793;22;20535;-78
2023/04/08 03:06:21;;;;;;;17.30;10.35;;;4.60;99.90;;;;;;6335753;22;20455;-78
2023/04/08 03:08:47;;;;;;;16.98;10.40;;;4.60;99.90;;;;;;6364366;22;20032;-79
2023/04/08 03:11:12;;;;;;;15.55;10.02;;;4.50;99.90;;;;;;6364281;22;20055;-79
2023/04/08 03:13:38;;;;;;;17.65;10.40;;;4.60;99.90;;;;;;6364150;22;20022;-79
2023/04/08 03:16:04;;;;;;;16.73;10.32;;;4.40;99.90;;;;;;6364185;22;20139;-79
2023/04/08 03:18:30;;;;;;;19.85;10.25;;;4.50;99.90;;;;;;6335767;22;20484;-79
2023/04/08 03:20:56;;;;;;;17.63;10.50;;;4.50;99.90;;;;;;6335281;22;20093;-79
2023/04/08 03:23:21;;;;;;;18.40;10.63;;;4.50;99.90;;;;;;6335309;22;20029;-79
2023/04/08 03:25:47;;;;;;;17.75;10.77;;;4.40;99.90;;;;;;6335425;22;20019;-79
2023/04/08 03:28:13;;;;;;;21.73;11.35;;;4.50;99.90;;;;;;6363679;22;20050;-80
2023/04/08 03:30:38;;;;;;;14.68;9.90;;;4.40;99.90;;;;;;6363858;22;20058;-79
2023/04/08 03:33:06;;;;;;;17.70;11.65;;;4.40;99.90;;;;;;6335280;22;20349;-80
2023/04/08 03:35:32;;;;;;;18.83;10.85;;;4.30;99.90;;;;;;6335186;22;20033;-80
2023/04/08 03:37:58;;;;;;;18.33;11.35;;;4.30;99.90;;;;;;6363220;22;20022;-78
2023/04/08 03:40:24;;;;;;;19.20;11.48;;;4.30;99.90;;;;;;6334950;22;20049;-79
2023/04/08 03:42:49;;;;;;;22.85;12.38;;;4.30;99.90;;;;;;6363320;22;20026;-78
2023/04/08 03:45:15;;;;;;;17.38;11.77;;;4.20;99.90;;;;;;6363086;22;20018;-78
2023/04/08 03:47:41;;;;;;;19.50;11.00;;;4.20;99.90;;;;;;6309212;22;20108;-78
2023/04/08 03:50:07;;;;;;;21.85;12.05;;;4.20;99.90;;;;;;6334466;22;20449;-78
2023/04/08 03:52:33;;;;;;;18.63;11.80;;;4.20;99.90;;;;;;6363511;22;20034;-78
2023/04/08 03:54:58;;;;;;;20.95;12.93;;;4.30;99.90;;;;;;6334922;22;20349;-78
2023/04/08 03:57:24;;;;;;;18.88;11.90;;;4.20;99.90;;;;;;6363121;22;20053;-78
2023/04/08 03:59:50;;;;;;;21.05;12.27;;;4.20;99.90;;;;;;6334830;22;20018;-79
2023/04/08 04:02:15;;;;;;;17.55;11.55;;;4.10;99.90;;;;;;6363385;22;20037;-80
2023/04/08 04:04:44;;;;;;;19.58;11.73;;;4.10;99.90;;;;;;6363960;22;20126;-79
2023/04/08 04:07:09;;;;;;;19.17;12.05;;;4.10;99.90;;;;;;6363056;22;20113;-80
2023/04/08 04:09:35;;;;;;;21.23;12.35;;;4.20;99.90;;;;;;6335049;22;20018;-80
2023/04/08 04:12:01;;;;;;;19.38;12.10;;;4.10;99.90;;;;;;6335552;22;20022;-80
2023/04/08 04:14:26;;;;;;;23.98;12.07;;;4.20;99.90;;;;;;6334865;22;20097;-79
2023/04/08 04:16:52;;;;;;;19.02;11.35;;;4.10;99.90;;;;;;6335509;22;20023;-80
2023/04/08 04:19:18;;;;;;;17.13;11.07;;;4.20;99.90;;;;;;6334362;22;20334;-79
2023/04/08 04:21:44;;;;;;;19.42;12.68;;;4.10;99.90;;;;;;6335822;22;20022;-79
2023/04/08 04:24:09;;;;;;;23.05;12.82;;;4.10;99.90;;;;;;6335605;22;20022;-79
2023/04/08 04:26:35;;;;;;;21.40;12.95;;;4.00;99.90;;;;;;6335112;22;20389;-80
2023/04/08 04:29:00;;;;;;;25.13;13.38;;;4.10;99.90;;;;;;6335316;22;20061;-79
2023/04/08 04:31:26;;;;;;;24.35;12.57;;;4.10;99.90;;;;;;6335332;22;20445;-79
2023/04/08 04:33:53;;;;;;;23.35;12.88;;;4.10;99.90;;;;;;6362677;22;20642;-80
2023/04/08 04:36:18;;;;;;;21.65;12.15;;;4.20;99.90;;;;;;6363354;22;20015;-79
2023/04/08 04:38:44;;;;;;;20.65;12.40;;;4.10;99.90;;;;;;6363428;22;20384;-79
2023/04/08 04:41:11;;;;;;;23.88;12.82;;;4.10;99.90;;;;;;6335209;22;20085;-79
2023/04/08 04:43:36;;;;;;;22.08;13.18;;;4.20;99.90;;;;;;6333969;22;20026;-79
2023/04/08 04:46:05;;;;;;;21.80;13.40;;;4.10;99.90;;;;;;6334296;22;20608;-79
2023/04/08 04:48:32;;;;;;;22.95;12.70;;;4.20;99.90;;;;;;6335036;22;20018;-79
2023/04/08 04:51:00;;;;;;;25.63;13.48;;;4.20;99.90;;;;;;6362650;22;20022;-78
2023/04/08 04:53:25;;;;;;;23.88;13.45;;;4.30;99.90;;;;;;6363211;22;20051;-78
2023/04/08 04:55:51;;;;;;;21.10;13.23;;;4.40;99.90;;;;;;6334990;22;20462;-79
2023/04/08 04:58:18;;;;;;;24.38;13.30;;;4.30;99.90;;;;;;6362886;22;20015;-80
2023/04/08 05:00:44;;;;;;;22.02;13.75;;;4.30;99.90;;;;;;6334623;22;20060;-79
2023/04/08 05:03:10;;;;;;;25.17;14.05;;;4.30;99.90;;;;;;6362627;22;20011;-79
2023/04/08 05:05:35;;;;;;;24.48;13.30;;;4.30;99.90;;;;;;6334665;22;20073;-78
2023/04/08 05:08:01;;;;;;;23.88;13.68;;;4.30;99.90;;;;;;6334897;22;20026;-79
2023/04/08 05:10:27;;;;;;;21.65;12.95;;;4.20;99.90;;;;;;6335341;22;20022;-79
2023/04/08 05:12:52;;;;;;;25.23;14.18;;;4.30;99.90;;;;;;6335830;22;20102;-79
2023/04/08 05:15:18;;;;;;;28.67;14.73;;;4.40;99.90;;;;;;6362906;22;20026;-79
2023/04/08 05:17:44;;;;;;;24.70;14.48;;;4.40;99.90;;;;;;6364016;22;20037;-80
2023/04/08 05:20:10;;;;;;;24.52;15.13;;;4.40;99.90;;;;;;6362970;22;20527;-80
2023/04/08 05:22:36;;;;;;;25.20;13.27;;;4.40;99.90;;;;;;6335496;22;20517;-80
2023/04/08 05:25:01;;;;;;;22.40;13.07;;;4.50;99.90;;;;;;6363353;22;20056;-80
2023/04/08 05:27:27;;;;;;;22.05;13.90;;;4.50;99.90;;;;;;6335150;22;20409;-80
2023/04/08 05:29:53;;;;;;;23.63;14.13;;;4.50;99.90;;;;;;6335920;22;20111;-80
2023/04/08 05:32:18;;;;;;;22.35;13.13;;;4.60;99.90;;;;;;6365156;22;20018;-80
2023/04/08 05:34:44;;;;;;;24.13;14.13;;;4.60;99.90;;;;;;6366015;22;20071;-80
2023/04/08 05:37:10;;;;;;;23.80;14.68;;;4.50;99.90;;;;;;6337157;22;20089;-80
2023/04/08 05:39:36;;;;;;;25.45;14.48;;;4.70;99.90;;;;;;6336587;22;20033;-80
2023/04/08 05:42:02;;;;;;;22.70;13.93;;;4.70;99.90;;;;;;6337513;22;20026;-81
2023/04/08 05:44:27;;;;;;;27.73;15.98;;;4.70;99.90;;;;;;6336893;22;20453;-80
2023/04/08 05:46:54;;;;;;;23.73;14.38;;;4.80;99.90;;;;;;6336832;22;20029;-80
2023/04/08 05:49:20;;;;;;;22.13;13.73;;;4.80;99.90;;;;;;6337075;22;20018;-81
2023/04/08 05:51:46;;;;;;;26.20;14.90;;;4.80;99.90;;;;;;6365305;22;20018;-79
2023/04/08 05:54:12;;;;;;;23.70;14.55;;;4.90;99.90;;;;;;6365029;22;20020;-80
2023/04/08 05:56:37;;;;;;;24.95;14.13;;;4.80;99.90;;;;;;6309488;22;20022;-81
2023/04/08 05:59:03;;;;;;;21.40;13.15;;;4.70;99.90;;;;;;6364852;22;20402;-80
2023/04/08 06:01:29;;;;;;;25.70;14.68;;;4.80;99.90;;;;;;6365251;22;20014;-80
2023/04/08 06:03:55;;;;;;;27.77;14.65;;;4.90;99.90;;;;;;6336467;22;20010;-81
2023/04/08 06:06:21;;;;;;;27.10;14.55;;;4.90;99.90;;;;;;6365076;22;20023;-82
2023/04/08 06:08:47;;;;;;;25.58;15.20;;;4.90;99.90;;;;;;6365351;22;20345;-82
2023/04/08 06:11:13;;;;;;;30.65;15.02;;;5.00;99.90;;;;;;6336648;22;20022;-82
2023/04/08 06:13:39;;;;;;;29.67;15.05;;;5.00;99.90;;;;;;6336858;22;20087;-83
2023/04/08 06:16:18;;;;;;;23.60;14.02;;;5.00;99.90;;;;;;6364727;22;20116;-83
2023/04/08 06:18:44;;;;;;;27.52;15.23;;;5.00;99.90;;;;;;6336671;22;20416;-83
2023/04/08 06:21:10;;;;;;;26.20;14.60;;;5.10;99.90;;;;;;6365202;22;20010;-82
2023/04/08 06:23:36;;;;;;;24.40;14.32;;;5.20;99.90;;;;;;6336819;22;20056;-83
2023/04/08 06:26:02;;;;;;;24.08;14.15;;;5.20;99.90;;;;;;6336926;22;20353;-82
2023/04/08 06:28:31;;;;;;;27.67;14.98;;;5.20;99.90;;;;;;6336565;22;20043;-83
2023/04/08 06:30:57;;;;;;;25.05;14.15;;;5.30;99.90;;;;;;6336688;22;20089;-82
2023/04/08 06:33:23;;;;;;;30.70;15.65;;;5.40;99.90;;;;;;6337140;22;20118;-82
2023/04/08 06:35:49;;;;;;;29.33;15.68;;;5.40;99.90;;;;;;6365384;22;20059;-82
2023/04/08 06:38:15;;;;;;;29.60;16.27;;;5.40;99.90;;;;;;6364865;22;20014;-82
2023/04/08 06:40:41;;;;;;;29.17;15.45;;;5.50;99.90;;;;;;6365466;22;20023;-82
2023/04/08 06:43:06;;;;;;;26.75;15.55;;;5.50;99.90;;;;;;6336797;22;20018;-83
2023/04/08 06:45:33;;;;;;;27.35;15.20;;;5.50;99.90;;;;;;6364835;22;20026;-84
2023/04/08 06:47:59;;;;;;;24.73;15.48;;;5.60;99.90;;;;;;6336109;22;20026;-83
2023/04/08 06:50:25;;;;;;;29.60;15.65;;;5.60;99.90;;;;;;6365412;22;20105;-83
2023/04/08 06:52:51;;;;;;;30.95;17.00;;;5.70;99.90;;;;;;6365182;22;20063;-83
2023/04/08 06:55:16;;;;;;;34.58;16.95;;;5.70;99.90;;;;;;6336719;22;20018;-83
2023/04/08 06:57:42;;;;;;;26.42;14.85;;;5.80;99.90;;;;;;6336178;22;20390;-84
2023/04/08 07:00:08;;;;;;;28.77;16.10;;;5.80;99.90;;;;;;6364599;22;20022;-82
2023/04/08 07:02:34;;;;;;;29.73;14.90;;;5.80;99.90;;;;;;6336840;22;20025;-83
2023/04/08 07:05:00;;;;;;;26.33;14.90;;;5.90;99.90;;;;;;6365014;22;20018;-83
2023/04/08 07:07:25;;;;;;;31.60;16.27;;;6.00;99.90;;;;;;6336955;22;20437;-82
2023/04/08 07:09:51;;;;;;;27.77;15.40;;;6.10;99.90;;;;;;6337001;22;20018;-84
2023/04/08 07:12:17;;;;;;;27.15;14.30;;;6.10;99.90;;;;;;6335782;22;20759;-75
2023/04/08 07:14:43;;;;;;;30.65;15.95;;;6.20;99.90;;;;;;6335156;22;20113;-76
2023/04/08 07:17:08;;;;;;;33.35;16.02;;;6.30;99.90;;;;;;6335514;22;20428;-77
2023/04/08 07:19:34;;;;;;;28.40;15.18;;;6.40;99.90;;;;;;6363300;22;20131;-76
2023/04/08 07:22:01;;;;;;;33.05;16.85;;;6.40;99.90;;;;;;6335769;22;20022;-77
2023/04/08 07:24:26;;;;;;;38.28;17.83;;;6.50;99.90;;;;;;6364100;22;20022;-77
2023/04/08 07:26:54;;;;;;;33.58;16.63;;;6.60;99.90;;;;;;6364622;22;20022;-80
2023/04/08 07:29:20;;;;;;;33.72;16.05;;;6.70;99.90;;;;;;6365705;22;20463;-82
2023/04/08 07:31:45;;;;;;;33.97;15.27;;;6.80;99.90;;;;;;6337241;22;20014;-81
2023/04/08 07:34:11;;;;;;;33.92;15.50;;;7.00;99.90;;;;;;6337507;22;20448;-83
2023/04/08 07:36:37;;;;;;;29.75;15.73;;;6.90;99.90;;;;;;6337383;22;20029;-82
2023/04/08 07:39:03;;;;;;;25.10;13.48;;;7.00;99.90;;;;;;6365204;22;20739;-80
2023/04/08 07:41:28;;;;;;;33.65;16.80;;;7.50;99.90;;;;;;6365068;22;20097;-80
2023/04/08 07:43:55;;;;;;;26.08;14.73;;;7.30;99.90;;;;;;6364571;22;20030;-79
2023/04/08 07:46:20;;;;;;;27.60;14.52;;;7.20;99.90;;;;;;6365102;22;20018;-78
2023/04/08 07:48:46;;;;;;;27.45;14.95;;;7.20;99.90;;;;;;6364485;22;20025;-78
2023/04/08 07:51:12;;;;;;;23.58;13.90;;;7.20;99.90;;;;;;6364509;22;20774;-76
2023/04/08 07:53:39;;;;;;;23.42;14.02;;;7.20;99.90;;;;;;6363188;22;20043;-73
2023/04/08 07:56:13;;;;;;;24.90;13.88;;;7.20;99.90;;;;;;6335287;22;20022;-73
2023/04/08 07:58:39;;;;;;;23.40;13.07;;;7.30;99.90;;;;;;6364538;22;20022;-81
2023/04/08 08:01:21;;;;;;;24.13;13.07;;;7.20;99.90;;;;;;6336399;22;20018;-81
2023/04/08 08:03:50;;;;;;;25.00;14.50;;;7.20;99.90;;;;;;6336834;22;20022;-81
2023/04/08 08:06:16;;;;;;;23.70;13.32;;;7.20;99.90;;;;;;6336988;22;20319;-82
2023/04/08 08:08:42;;;;;;;27.08;14.40;;;7.30;99.90;;;;;;6337691;22;20030;-81
2023/04/08 08:11:08;;;;;;;23.27;14.25;;;7.20;99.90;;;;;;6337262;22;20025;-81
2023/04/08 08:13:34;;;;;;;26.08;14.70;;;7.30;99.90;;;;;;6336963;22;20400;-80
2023/04/08 08:16:00;;;;;;;25.55;13.75;;;7.40;99.90;;;;;;6364812;22;20694;-81
2023/04/08 08:18:26;;;;;;;24.35;13.48;;;7.50;99.90;;;;;;6336922;22;20029;-81
2023/04/08 08:20:51;;;;;;;22.77;12.80;;;7.50;99.90;;;;;;6337202;22;20015;-80
2023/04/08 08:23:17;;;;;;;23.58;13.57;;;7.50;99.90;;;;;;6337761;22;20362;-80
2023/04/08 08:25:43;;;;;;;25.13;12.57;;;7.70;99.90;;;;;;6364696;22;20022;-78
2023/04/08 08:28:09;;;;;;;21.92;12.80;;;7.60;99.90;;;;;;6336283;22;20026;-79
2023/04/08 08:30:34;;;;;;;22.25;12.73;;;7.70;99.90;;;;;;6336135;22;20014;-79
2023/04/08 08:33:00;;;;;;;24.23;13.75;;;7.90;99.90;;;;;;6336184;22;20022;-80
2023/04/08 08:35:26;;;;;;;22.65;13.70;;;8.00;99.90;;;;;;6365611;22;20014;-80
2023/04/08 08:37:51;;;;;;;24.42;12.90;;;8.00;99.90;;;;;;6336880;22;20471;-80
2023/04/08 08:40:17;;;;;;;26.75;14.25;;;8.10;99.90;;;;;;6364626;22;20033;-81
2023/04/08 08:42:51;;;;;;;24.58;12.82;;;8.10;99.90;;;;;;6336578;22;20022;-81
2023/04/08 08:45:18;;;;;;;21.70;11.95;;;8.10;99.90;;;;;;6335978;22;20030;-81
2023/04/08 08:47:44;;;;;;;23.00;12.70;;;8.20;99.90;;;;;;6365004;22;20064;-79
2023/04/08 08:50:10;;;;;;;22.90;12.27;;;8.10;99.90;;;;;;6336625;22;20470;-79
2023/04/08 08:52:35;;;;;;;21.10;12.25;;;8.10;99.90;;;;;;6364655;22;20053;-80
2023/04/08 08:55:01;;;;;;;20.17;11.63;;;8.10;99.90;;;;;;6336975;22;20050;-79
2023/04/08 08:57:27;;;;;;;23.08;12.65;;;8.20;99.90;;;;;;6364555;22;20343;-78
2023/04/08 08:59:52;;;;;;;20.85;11.73;;;8.30;99.90;;;;;;6365380;22;20019;-81
2023/04/08 09:02:27;;;;;;;26.15;12.68;;;8.40;99.90;;;;;;6336466;22;20018;-80
2023/04/08 09:05:04;;;;;;;22.00;13.18;;;8.40;99.90;;;;;;6337220;22;20018;-78
2023/04/08 09:07:39;;;;;;;22.67;12.05;;;8.50;99.90;;;;;;6338452;22;20018;-80
2023/04/08 09:10:05;;;;;;;22.30;11.77;;;8.50;99.90;;;;;;6366798;22;20015;-80
2023/04/08 09:12:31;;;;;;;20.70;12.43;;;8.60;99.90;;;;;;6367012;22;20014;-81
2023/04/08 09:15:08;;;;;;;20.45;12.13;;;8.60;99.90;;;;;;6338254;22;20075;-80
2023/04/08 09:17:38;;;;;;;17.60;11.50;;;8.70;99.90;;;;;;6336753;22;20326;-80
2023/04/08 09:20:13;;;;;;;21.02;12.70;;;8.70;99.90;;;;;;6366944;22;20027;-81
2023/04/08 09:23:01;;;;;;;20.05;11.55;;;8.70;99.90;;;;;;6339028;22;20071;-80
2023/04/08 09:25:32;;;;;;;20.88;11.90;;;8.70;99.90;;;;;;6366984;22;20052;-80
2023/04/08 09:27:58;;;;;;;22.25;12.07;;;8.80;99.90;;;;;;6338444;22;20397;-81
2023/04/08 09:30:26;;;;;;;19.83;12.38;;;8.80;99.90;;;;;;6367159;22;20022;-80
2023/04/08 09:33:05;;;;;;;20.13;11.70;;;8.80;99.90;;;;;;6338199;22;20022;-81
2023/04/08 09:35:31;;;;;;;21.55;12.63;;;8.70;99.90;;;;;;6338075;22;20024;-81
2023/04/08 09:37:57;;;;;;;18.40;12.50;;;8.80;99.90;;;;;;6366120;22;20364;-81
2023/04/08 09:40:26;;;;;;;21.85;13.32;;;8.90;99.90;;;;;;6337851;22;20099;-81
2023/04/08 09:42:54;;;;;;;17.73;11.85;;;8.80;99.90;;;;;;6338764;22;20083;-81
2023/04/08 09:45:21;;;;;;;20.98;13.82;;;8.90;99.90;;;;;;6366702;22;20323;-81
2023/04/08 09:48:09;;;;;;;22.52;12.60;;;8.80;99.90;;;;;;6365892;22;20480;-81
2023/04/08 09:50:41;;;;;;;22.95;13.90;;;8.90;99.90;;;;;;6366448;22;20017;-80
2023/04/08 09:53:29;;;;;;;20.13;13.15;;;8.90;99.90;;;;;;6338131;22;20022;-80
2023/04/08 09:55:57;;;;;;;22.50;13.30;;;9.00;99.90;;;;;;6366825;22;20011;-79
2023/04/08 09:58:38;;;;;;;20.30;12.73;;;9.00;99.90;;;;;;6338297;22;20085;-80
2023/04/08 10:01:05;;;;;;;20.80;13.35;;;9.10;99.90;;;;;;6366711;22;20050;-79
2023/04/08 10:03:51;;;;;;;19.75;11.85;;;9.10;99.90;;;;;;6338840;22;20027;-79
2023/04/08 10:06:17;;;;;;;19.95;13.40;;;9.30;99.90;;;;;;6337929;22;20026;-78
2023/04/08 10:08:44;;;;;;;24.17;13.13;;;9.30;99.90;;;;;;6366222;22;20024;-80
2023/04/08 10:11:10;;;;;;;21.92;13.80;;;9.20;99.90;;;;;;6337794;22;20019;-79
2023/04/08 10:13:35;;;;;;;21.70;12.90;;;9.40;99.90;;;;;;6337868;22;20457;-79
2023/04/08 10:16:20;;;;;;;22.85;13.50;;;9.40;99.90;;;;;;6337553;22;20041;-80
2023/04/08 10:18:48;;;;;;;24.23;12.98;;;9.30;99.90;;;;;;6337816;22;20026;-81
2023/04/08 10:21:46;;;;;;;21.08;13.55;;;9.30;99.90;;;;;;6337978;22;20014;-81
2023/04/08 10:24:12;;;;;;;21.38;13.23;;;9.20;99.90;;;;;;6337174;22;20030;-80
2023/04/08 10:26:43;;;;;;;18.63;12.60;;;9.30;99.90;;;;;;6366456;22;20021;-80
2023/04/08 10:29:18;;;;;;;21.55;13.05;;;9.30;99.90;;;;;;6338048;22;20123;-80
2023/04/08 10:31:45;;;;;;;23.55;14.50;;;9.30;99.90;;;;;;6337842;22;20018;-78
2023/04/08 10:34:20;;;;;;;22.40;13.80;;;9.30;99.90;;;;;;6337647;22;20417;-79
2023/04/08 10:36:46;;;;;;;23.08;13.85;;;9.30;99.90;;;;;;6337344;22;20018;-79
2023/04/08 10:39:13;;;;;;;21.83;13.32;;;9.20;99.90;;;;;;6365236;22;20030;-80
2023/04/08 10:41:46;;;;;;;21.20;12.65;;;9.20;99.90;;;;;;6365601;22;20067;-79
2023/04/08 10:44:20;;;;;;;20.08;13.05;;;9.20;99.90;;;;;;6365639;22;20061;-79
2023/04/08 10:46:47;;;;;;;19.55;12.20;;;9.20;99.90;;;;;;6338730;22;20011;-80
2023/04/08 10:49:17;;;;;;;24.70;13.48;;;9.20;99.90;;;;;;6336817;22;20026;-74
2023/04/08 10:51:44;;;;;;;20.50;12.07;;;9.10;99.90;;;;;;6365865;22;20018;-80
2023/04/08 10:54:11;;;;;;;19.63;12.25;;;9.20;99.90;;;;;;6337949;22;20018;-81
2023/04/08 10:56:48;;;;;;;21.52;12.38;;;9.00;99.90;;;;;;6338191;22;20033;-79
2023/04/08 10:59:16;;;;;;;20.42;12.52;;;9.10;99.90;;;;;;6338171;22;20411;-80
2023/04/08 11:01:43;;;;;;;18.58;12.20;;;9.10;99.90;;;;;;6337963;22;20023;-79
2023/04/08 11:04:22;;;;;;;24.20;12.77;;;9.00;99.90;;;;;;6365799;22;20500;-81
2023/04/08 11:06:48;;;;;;;20.60;12.55;;;9.00;99.90;;;;;;6337845;22;20026;-81
2023/04/08 11:09:18;;;;;;;19.33;11.65;;;9.10;99.90;;;;;;6366042;22;20022;-81
2023/04/08 11:11:45;;;;;;;19.63;12.25;;;9.20;99.90;;;;;;6337570;22;20356;-81
2023/04/08 11:14:12;;;;;;;16.90;10.30;;;9.20;99.90;;;;;;6338298;22;20086;-81
2023/04/08 11:16:38;;;;;;;22.13;12.85;;;9.30;99.90;;;;;;6366737;22;20075;-81
2023/04/08 11:19:05;;;;;;;20.67;12.57;;;9.30;99.90;;;;;;6365788;22;20014;-80
2023/04/08 11:21:35;;;;;;;18.25;11.82;;;9.20;99.90;;;;;;6366177;22;20018;-79
2023/04/08 11:24:04;;;;;;;20.38;11.52;;;9.20;99.90;;;;;;6364818;22;20061;-80
2023/04/08 11:26:30;;;;;;;19.88;11.82;;;9.20;99.90;;;;;;6364510;22;20010;-83
2023/04/08 11:28:57;;;;;;;20.50;12.98;;;9.30;99.90;;;;;;6363046;22;20125;-75
2023/04/08 11:31:23;;;;;;;20.50;11.88;;;9.30;99.90;;;;;;6364068;22;20018;-74
2023/04/08 11:33:52;;;;;;;17.98;10.82;;;9.30;99.90;;;;;;6335881;22;20067;-75
2023/04/08 11:36:18;;;;;;;18.42;11.38;;;9.30;99.90;;;;;;6336191;22;20034;-75
2023/04/08 11:38:43;;;;;;;20.65;12.32;;;9.30;99.90;;;;;;6336293;22;20326;-75
2023/04/08 11:41:10;;;;;;;19.17;12.15;;;9.30;99.90;;;;;;6336394;22;20029;-74
2023/04/08 11:43:36;;;;;;;19.42;11.40;;;9.40;99.90;;;;;;6364255;22;20089;-75
2023/04/08 11:46:10;;;;;;;20.40;13.02;;;9.40;99.90;;;;;;6335767;22;20429;-75
2023/04/08 11:48:37;;;;;;;19.85;13.32;;;9.40;99.90;;;;;;6363973;22;20011;-75
2023/04/08 11:51:11;;;;;;;22.30;13.10;;;9.50;99.90;;;;;;6336500;22;20018;-74
2023/04/08 11:53:37;;;;;;;23.10;13.55;;;9.50;99.90;;;;;;6364861;22;20688;-73
2023/04/08 11:56:16;;;;;;;16.67;11.20;;;9.50;99.90;;;;;;6364607;22;20022;-76
2023/04/08 11:58:42;;;;;;;20.20;11.77;;;9.50;99.90;;;;;;6336244;22;20026;-74
2023/04/08 12:01:07;;;;;;;23.10;13.82;;;9.50;99.90;;;;;;6335639;22;20439;-74
2023/04/08 12:03:33;;;;;;;20.83;12.52;;;9.50;99.90;;;;;;6364118;22;20022;-75
2023/04/08 12:05:59;;;;;;;21.80;14.00;;;9.50;99.90;;;;;;6364494;22;20017;-75
2023/04/08 12:08:25;;;;;;;21.77;13.63;;;9.50;99.90;;;;;;6364490;22;20387;-74
2023/04/08 12:10:51;;;;;;;18.67;12.05;;;9.50;99.90;;;;;;6335620;22;20053;-74
2023/04/08 12:13:17;;;;;;;25.42;14.25;;;9.50;99.90;;;;;;6364211;22;20348;-75
2023/04/08 12:15:43;;;;;;;21.17;13.35;;;9.50;99.90;;;;;;6364160;22;20010;-75
2023/04/08 12:18:09;;;;;;;23.50;12.88;;;9.50;99.90;;;;;;6364121;22;20014;-75
2023/04/08 12:20:35;;;;;;;20.45;13.02;;;9.50;99.90;;;;;;6363831;22;20011;-75
2023/04/08 12:23:01;;;;;;;22.13;13.45;;;9.40;99.90;;;;;;6364160;22;20106;-75
2023/04/08 12:25:27;;;;;;;25.90;13.55;;;9.40;99.90;;;;;;6363942;22;20363;-74
2023/04/08 12:27:53;;;;;;;25.85;14.90;;;9.50;99.90;;;;;;6335834;22;20030;-74
2023/04/08 12:30:20;;;;;;;22.90;12.80;;;9.40;99.90;;;;;;6363969;22;20110;-74
2023/04/08 12:32:46;;;;;;;24.15;13.65;;;9.40;99.90;;;;;;6335882;22;20026;-74
2023/04/08 12:35:12;;;;;;;23.25;13.20;;;9.50;99.90;;;;;;6336005;22;20030;-74
2023/04/08 12:37:38;;;;;;;20.63;13.23;;;9.40;99.90;;;;;;6336043;22;20110;-73
2023/04/08 12:40:04;;;;;;;25.60;13.38;;;9.50;99.90;;;;;;6363820;22;20028;-74
2023/04/08 12:42:30;;;;;;;25.85;14.43;;;9.50;99.90;;;;;;6363943;22;20022;-74